createdAt,value
2023-04-02T00:01:00.939Z,14.51
2023-04-02T00:03:42.773Z,14.45
2023-04-02T00:06:30.472Z,14.03
2023-04-02T00:09:22.950Z,14.13
2023-04-02T00:11:55.996Z,13.90
2023-04-02T00:14:27.305Z,13.94
2023-04-02T00:16:57.044Z,13.69
2023-04-02T00:19:48.763Z,13.75
2023-04-02T00:22:20.087Z,13.83
2023-04-02T00:24:52.673Z,13.92
2023-04-02T00:27:21.376Z,13.92
2023-04-02T00:29:51.856Z,13.82
2023-04-02T00:32:30.100Z,13.96
2023-04-02T00:34:59.625Z,13.93
2023-04-02T00:37:38.874Z,14.08
2023-04-02T00:40:21.115Z,14.19
2023-04-02T00:42:50.450Z,14.25
2023-04-02T00:45:30.269Z,14.23
2023-04-02T00:48:01.244Z,14.21
2023-04-02T00:50:40.644Z,14.36
2023-04-02T00:53:15.878Z,14.41
2023-04-02T00:55:44.735Z,14.42
2023-04-02T00:58:32.221Z,14.31
2023-04-02T01:01:02.142Z,14.27
2023-04-02T01:03:37.139Z,14.30
2023-04-02T01:06:14.334Z,14.43
2023-04-02T01:09:10.490Z,14.43
2023-04-02T01:11:57.402Z,14.36
2023-04-02T01:14:40.477Z,14.34
2023-04-02T01:17:18.650Z,14.25
2023-04-02T01:20:11.701Z,14.12
2023-04-02T01:23:24.153Z,14.19
2023-04-02T01:26:06.691Z,14.05
2023-04-02T01:28:53.325Z,14.17
2023-04-02T01:31:21.912Z,14.00
2023-04-02T01:33:49.580Z,13.93
2023-04-02T01:36:47.165Z,13.75
2023-04-02T01:39:34.052Z,13.56
2023-04-02T01:42:18.522Z,13.65
2023-04-02T01:44:52.603Z,13.55
2023-04-02T01:47:28.933Z,13.58
2023-04-02T01:50:02.745Z,13.47
2023-04-02T01:52:43.778Z,13.48
2023-04-02T01:55:15.632Z,13.50
2023-04-02T01:57:49.540Z,13.62
2023-04-02T02:00:19.258Z,13.64
2023-04-02T02:02:52.236Z,13.67
2023-04-02T02:05:23.283Z,13.56
2023-04-02T02:07:54.685Z,13.54
2023-04-02T02:10:29.596Z,13.37
2023-04-02T02:13:00.336Z,13.45
2023-04-02T02:15:29.348Z,13.63
2023-04-02T02:18:03.240Z,13.62
2023-04-02T02:20:33.142Z,13.66
2023-04-02T02:23:03.955Z,13.75
2023-04-02T02:25:36.326Z,13.83
2023-04-02T02:28:15.758Z,13.68
2023-04-02T02:30:51.335Z,13.67
2023-04-02T02:33:33.794Z,13.70
2023-04-02T02:36:29.542Z,13.39
2023-04-02T02:39:30.680Z,13.43
2023-04-02T02:42:02.641Z,13.44
2023-04-02T02:44:36.027Z,13.61
2023-04-02T02:47:16.712Z,13.68
2023-04-02T02:49:51.880Z,13.63
2023-04-02T02:52:32.290Z,13.34
2023-04-02T02:55:20.873Z,13.27
2023-04-02T02:58:32.821Z,13.30
2023-04-02T03:01:12.088Z,13.41
2023-04-02T03:03:42.811Z,13.53
2023-04-02T03:06:16.854Z,13.35
2023-04-02T03:08:58.286Z,13.49
2023-04-02T03:11:49.469Z,13.49
2023-04-02T03:14:35.587Z,13.32
2023-04-02T03:17:12.826Z,13.49
2023-04-02T03:19:48.561Z,13.62
2023-04-02T03:22:36.058Z,13.80
2023-04-02T03:25:18.208Z,13.53
2023-04-02T03:27:49.959Z,13.37
2023-04-02T03:30:43.593Z,13.11
2023-04-02T03:33:35.114Z,13.35
2023-04-02T03:36:25.807Z,13.62
2023-04-02T03:38:58.000Z,13.52
2023-04-02T03:42:09.856Z,13.49
2023-04-02T03:44:50.508Z,13.45
2023-04-02T03:47:32.205Z,13.55
2023-04-02T03:50:28.976Z,13.47
2023-04-02T03:53:01.614Z,13.52
2023-04-02T03:55:33.898Z,13.57
2023-04-02T03:58:41.210Z,13.47
2023-04-02T04:01:24.360Z,13.31
2023-04-02T04:04:02.208Z,13.16
2023-04-02T04:06:33.193Z,13.22
2023-04-02T04:09:19.411Z,13.19
2023-04-02T04:11:52.724Z,13.18
2023-04-02T04:14:34.023Z,13.28
2023-04-02T04:17:13.941Z,13.39
2023-04-02T04:19:58.595Z,13.47
2023-04-02T04:22:33.281Z,13.31
2023-04-02T04:25:29.904Z,13.27
2023-04-02T04:28:27.270Z,13.20
2023-04-02T04:31:09.597Z,13.19
2023-04-02T04:33:46.344Z,12.98
2023-04-02T04:36:28.749Z,13.03
2023-04-02T04:39:14.686Z,12.92
2023-04-02T04:41:49.262Z,12.89
2023-04-02T04:44:24.309Z,12.95
2023-04-02T04:47:02.576Z,12.95
2023-04-02T04:49:45.148Z,13.05
2023-04-02T04:52:21.112Z,12.99
2023-04-02T04:54:49.293Z,12.88
2023-04-02T04:57:38.544Z,12.93
2023-04-02T05:00:29.004Z,13.04
2023-04-02T05:03:17.381Z,12.92
2023-04-02T05:05:46.437Z,12.82
2023-04-02T05:08:23.215Z,12.94
2023-04-02T05:11:01.541Z,13.01
2023-04-02T05:13:37.725Z,12.83
2023-04-02T05:16:20.753Z,12.86
2023-04-02T05:19:08.983Z,12.97
2023-04-02T05:21:37.317Z,12.87
2023-04-02T05:24:42.363Z,12.86
2023-04-02T05:27:18.778Z,13.07
2023-04-02T05:30:01.147Z,13.14
2023-04-02T05:32:34.864Z,12.98
2023-04-02T05:35:06.668Z,13.12
2023-04-02T05:37:39.567Z,13.22
2023-04-02T05:40:21.283Z,13.23
2023-04-02T05:42:53.254Z,13.14
2023-04-02T05:45:21.792Z,12.97
2023-04-02T05:47:53.034Z,12.68
2023-04-02T05:50:30.799Z,12.56
2023-04-02T05:53:08.896Z,12.53
2023-04-02T05:55:48.960Z,12.53
2023-04-02T05:58:35.256Z,12.52
2023-04-02T06:01:42.202Z,12.54
2023-04-02T06:04:30.105Z,12.53
2023-04-02T06:07:10.163Z,12.39
2023-04-02T06:10:03.474Z,12.60
2023-04-02T06:12:55.551Z,12.70
2023-04-02T06:15:24.332Z,12.83
2023-04-02T06:18:01.872Z,12.84
2023-04-02T06:20:30.843Z,12.86
2023-04-02T06:23:19.935Z,12.89
2023-04-02T06:25:58.919Z,12.80
2023-04-02T06:28:33.349Z,12.89
2023-04-02T06:31:08.264Z,13.02
2023-04-02T06:33:37.944Z,13.06
2023-04-02T06:36:08.547Z,13.26
2023-04-02T06:38:38.111Z,13.54
2023-04-02T06:41:20.660Z,13.76
2023-04-02T06:44:21.620Z,14.04
2023-04-02T06:47:22.312Z,14.13
2023-04-02T06:50:33.597Z,14.23
2023-04-02T06:53:06.499Z,14.06
2023-04-02T06:56:08.956Z,13.85
2023-04-02T06:58:36.678Z,13.79
2023-04-02T07:01:04.866Z,13.62
2023-04-02T07:03:41.932Z,13.74
2023-04-02T07:06:28.365Z,13.62
2023-04-02T07:08:59.620Z,13.79
2023-04-02T07:11:28.140Z,13.93
2023-04-02T07:13:59.187Z,13.73
2023-04-02T07:16:29.595Z,13.62
2023-04-02T07:19:00.841Z,13.58
2023-04-02T07:21:32.252Z,13.79
2023-04-02T07:24:00.432Z,13.92
2023-04-02T07:26:28.478Z,14.02
2023-04-02T07:28:56.954Z,14.10
2023-04-02T07:31:28.032Z,14.19
2023-04-02T07:34:00.004Z,14.02
2023-04-02T07:36:30.762Z,14.03
2023-04-02T07:38:59.646Z,14.35
2023-04-02T07:41:27.754Z,14.38
2023-04-02T07:43:55.460Z,13.92
2023-04-02T07:46:23.230Z,13.72
2023-04-02T07:48:51.095Z,13.98
2023-04-02T07:51:20.332Z,13.92
2023-04-02T07:53:56.347Z,14.09
2023-04-02T07:56:25.592Z,13.87
2023-04-02T07:58:53.252Z,13.96
2023-04-02T08:01:24.500Z,14.23
2023-04-02T08:03:58.022Z,14.20
2023-04-02T08:06:26.243Z,14.34
2023-04-02T08:08:54.630Z,14.37
2023-04-02T08:11:22.314Z,14.45
2023-04-02T08:13:50.829Z,14.73
2023-04-02T08:16:19.084Z,14.68
2023-04-02T08:18:47.942Z,14.92
2023-04-02T08:21:16.668Z,14.65
2023-04-02T08:23:45.030Z,14.92
2023-04-02T08:26:18.980Z,15.35
2023-04-02T08:28:46.767Z,15.69
2023-04-02T08:31:14.570Z,15.10
2023-04-02T08:33:42.358Z,14.76
2023-04-02T08:36:16.935Z,14.89
2023-04-02T08:38:45.564Z,15.04
2023-04-02T08:41:38.959Z,14.91
2023-04-02T08:44:23.463Z,14.82
2023-04-02T08:47:04.880Z,14.67
2023-04-02T08:49:54.874Z,14.49
2023-04-02T08:52:24.337Z,14.50
2023-04-02T08:54:53.569Z,14.34
2023-04-02T08:57:30.637Z,14.19
2023-04-02T09:00:22.062Z,14.13
2023-04-02T09:02:58.024Z,13.68
2023-04-02T09:05:31.396Z,13.59
2023-04-02T09:08:05.283Z,13.77
2023-04-02T09:10:39.305Z,13.88
2023-04-02T09:13:20.692Z,13.92
2023-04-02T09:15:50.678Z,13.87
2023-04-02T09:18:20.093Z,13.76
2023-04-02T09:20:49.503Z,13.85
2023-04-02T09:23:23.226Z,13.94
2023-04-02T09:26:03.616Z,14.22
2023-04-02T09:28:32.367Z,14.38
2023-04-02T09:31:18.243Z,14.52
2023-04-02T09:33:49.462Z,14.71
2023-04-02T09:36:32.846Z,15.11
2023-04-02T09:39:07.145Z,15.76
2023-04-02T09:41:37.230Z,16.59
2023-04-02T09:44:21.347Z,16.74
2023-04-02T09:46:53.158Z,16.83
2023-04-02T09:49:25.669Z,17.13
2023-04-02T09:52:11.989Z,17.17
2023-04-02T09:54:41.707Z,16.56
2023-04-02T09:57:25.380Z,16.77
2023-04-02T10:00:39.650Z,16.54
2023-04-02T10:03:33.083Z,16.23
2023-04-02T10:06:11.087Z,16.23
2023-04-02T10:08:42.418Z,15.87
2023-04-02T10:11:43.708Z,16.33
2023-04-02T10:14:23.142Z,16.38
2023-04-02T10:16:55.510Z,16.82
2023-04-02T10:19:26.717Z,17.24
2023-04-02T10:21:57.189Z,18.46
2023-04-02T10:24:29.310Z,19.67
2023-04-02T10:27:29.681Z,19.90
2023-04-02T10:30:20.469Z,21.90
2023-04-02T10:33:00.957Z,24.01
2023-04-02T10:35:43.491Z,24.83
2023-04-02T10:38:52.921Z,23.44
2023-04-02T10:41:49.311Z,22.18
2023-04-02T10:44:32.326Z,21.98
2023-04-02T10:47:33.104Z,21.65
2023-04-02T10:50:38.494Z,21.23
2023-04-02T10:53:16.821Z,21.28
2023-04-02T10:55:49.265Z,22.27
2023-04-02T10:58:50.678Z,24.24
2023-04-02T11:01:24.068Z,24.40
2023-04-02T11:04:00.207Z,25.40
2023-04-02T11:06:44.258Z,27.05
2023-04-02T11:09:26.787Z,26.23
2023-04-02T11:11:58.020Z,26.05
2023-04-02T11:14:31.531Z,25.00
2023-04-02T11:17:00.792Z,23.24
2023-04-02T11:19:28.316Z,23.90
2023-04-02T11:21:59.593Z,25.28
2023-04-02T11:24:37.372Z,26.02
2023-04-02T11:27:06.685Z,26.58
2023-04-02T11:29:34.882Z,24.98
2023-04-02T11:32:21.556Z,24.40
2023-04-02T11:34:59.511Z,24.48
2023-04-02T11:37:36.195Z,23.67
2023-04-02T11:40:07.204Z,22.75
2023-04-02T11:42:35.501Z,22.98
2023-04-02T11:45:24.638Z,22.38
2023-04-02T11:48:02.093Z,20.58
2023-04-02T11:50:41.004Z,19.26
2023-04-02T11:53:12.213Z,18.35
2023-04-02T11:55:40.132Z,18.06
2023-04-02T11:58:32.246Z,17.13
2023-04-02T12:00:59.692Z,16.60
2023-04-02T12:03:46.910Z,15.83
2023-04-02T12:06:18.846Z,15.49
2023-04-02T12:08:59.114Z,15.62
2023-04-02T12:11:44.819Z,15.29
2023-04-02T12:14:35.231Z,15.59
2023-04-02T12:17:06.282Z,14.80
2023-04-02T12:19:35.785Z,15.06
2023-04-02T12:22:03.849Z,15.28
2023-04-02T12:24:31.794Z,15.47
2023-04-02T12:27:17.976Z,15.94
2023-04-02T12:29:45.528Z,16.05
2023-04-02T12:32:29.549Z,16.18
2023-04-02T12:35:04.742Z,15.71
2023-04-02T12:37:32.835Z,15.92
2023-04-02T12:40:02.511Z,16.74
2023-04-02T12:42:35.148Z,18.14
2023-04-02T12:45:03.904Z,19.10
2023-04-02T12:47:32.144Z,20.02
2023-04-02T12:50:00.851Z,21.44
2023-04-02T12:52:29.141Z,22.26
2023-04-02T12:55:03.152Z,23.32
2023-04-02T12:57:33.663Z,24.79
2023-04-02T13:00:06.500Z,26.51
2023-04-02T13:02:45.039Z,26.65
2023-04-02T13:05:13.457Z,26.85
2023-04-02T13:07:47.357Z,27.56
2023-04-02T13:10:25.798Z,28.22
2023-04-02T13:13:01.730Z,28.92
2023-04-02T13:15:32.139Z,29.68
2023-04-02T13:18:19.230Z,28.42
2023-04-02T13:21:00.521Z,31.53
2023-04-02T13:23:29.680Z,32.31
2023-04-02T13:25:59.850Z,32.42
2023-04-02T13:28:28.457Z,32.85
2023-04-02T13:30:56.474Z,34.58
2023-04-02T13:33:24.486Z,34.57
2023-04-02T13:35:51.938Z,35.21
2023-04-02T13:38:19.772Z,35.97
2023-04-02T13:40:47.124Z,36.17
2023-04-02T13:43:17.349Z,36.58
2023-04-02T13:45:49.034Z,35.25
2023-04-02T13:48:18.326Z,34.24
2023-04-02T13:50:46.779Z,34.68
2023-04-02T13:53:31.139Z,32.95
2023-04-02T13:55:58.858Z,33.35
2023-04-02T13:58:27.210Z,34.34
2023-04-02T14:00:55.230Z,35.38
2023-04-02T14:03:23.672Z,35.37
2023-04-02T14:06:03.256Z,35.59
2023-04-02T14:08:36.776Z,36.01
2023-04-02T14:11:21.862Z,38.18
2023-04-02T14:13:52.387Z,39.27
2023-04-02T14:16:31.853Z,40.48
2023-04-02T14:19:00.334Z,38.61
2023-04-02T14:22:06.362Z,38.79
2023-04-02T14:24:49.362Z,37.82
2023-04-02T14:27:16.695Z,35.68
2023-04-02T14:29:51.175Z,35.34
2023-04-02T14:32:29.437Z,33.10
2023-04-02T14:35:16.364Z,35.89
2023-04-02T14:38:02.145Z,35.61
2023-04-02T14:40:52.100Z,37.41
2023-04-02T14:43:36.920Z,35.13
2023-04-02T14:46:10.294Z,33.41
2023-04-02T14:48:41.071Z,34.38
2023-04-02T14:51:16.122Z,33.64
2023-04-02T14:53:55.841Z,29.48
2023-04-02T14:56:24.534Z,28.65
2023-04-02T14:59:05.732Z,25.66
2023-04-02T15:01:40.527Z,25.54
2023-04-02T15:04:14.444Z,25.39
2023-04-02T15:06:44.978Z,25.02
2023-04-02T15:09:31.502Z,24.46
2023-04-02T15:12:07.333Z,23.71
2023-04-02T15:14:38.225Z,23.63
2023-04-02T15:17:07.360Z,22.75
2023-04-02T15:19:34.857Z,22.94
2023-04-02T15:22:21.581Z,24.76
2023-04-02T15:25:08.111Z,24.50
2023-04-02T15:27:52.144Z,23.92
2023-04-02T15:30:19.997Z,23.72
2023-04-02T15:32:49.078Z,23.02
2023-04-02T15:35:38.714Z,23.34
2023-04-02T15:38:12.377Z,22.20
2023-04-02T15:40:50.562Z,22.45
2023-04-02T15:43:21.412Z,22.46
2023-04-02T15:46:08.056Z,22.65
2023-04-02T15:48:39.460Z,22.27
2023-04-02T15:51:42.422Z,21.90
2023-04-02T15:54:16.012Z,21.65
2023-04-02T15:56:59.070Z,21.67
2023-04-02T15:59:41.010Z,21.64
2023-04-02T16:02:32.111Z,21.24
2023-04-02T16:05:26.237Z,20.58
2023-04-02T16:07:57.538Z,20.28
2023-04-02T16:10:41.121Z,20.62
2023-04-02T16:13:26.154Z,20.36
2023-04-02T16:16:06.258Z,20.38
2023-04-02T16:18:53.636Z,20.16
2023-04-02T16:21:28.302Z,19.70
2023-04-02T16:23:56.143Z,19.66
2023-04-02T16:26:24.088Z,19.61
2023-04-02T16:28:51.941Z,19.59
2023-04-02T16:31:22.352Z,19.48
2023-04-02T16:33:53.313Z,19.44
2023-04-02T16:36:23.897Z,19.59
2023-04-02T16:38:57.931Z,19.70
2023-04-02T16:41:52.156Z,19.63
2023-04-02T16:44:35.914Z,19.11
2023-04-02T16:47:12.178Z,19.06
2023-04-02T16:49:49.806Z,19.02
2023-04-02T16:52:26.350Z,18.81
2023-04-02T16:55:11.561Z,18.64
2023-04-02T16:57:58.184Z,18.68
2023-04-02T17:00:48.447Z,18.59
2023-04-02T17:03:38.783Z,18.55
2023-04-02T17:06:08.639Z,18.56
2023-04-02T17:08:41.910Z,18.58
2023-04-02T17:11:13.099Z,18.49
2023-04-02T17:13:50.543Z,18.49
2023-04-02T17:16:22.111Z,18.42
2023-04-02T17:18:53.231Z,18.39
2023-04-02T17:21:24.236Z,18.36
2023-04-02T17:23:56.867Z,18.32
2023-04-02T17:26:30.562Z,18.30
2023-04-02T17:29:00.956Z,18.22
2023-04-02T17:31:34.073Z,18.13
2023-04-02T17:34:09.958Z,17.95
2023-04-02T17:36:56.273Z,17.70
2023-04-02T17:39:39.314Z,17.46
2023-04-02T17:42:09.788Z,17.29
2023-04-02T17:44:37.172Z,17.18
2023-04-02T17:47:05.783Z,17.01
2023-04-02T17:49:49.232Z,16.96
2023-04-02T17:52:38.326Z,16.90
2023-04-02T17:55:11.785Z,16.80
2023-04-02T17:57:45.940Z,16.55
2023-04-02T18:00:22.588Z,16.44
2023-04-02T18:03:01.212Z,16.16
2023-04-02T18:05:43.093Z,16.05
2023-04-02T18:08:31.390Z,16.06
2023-04-02T18:11:19.845Z,15.84
2023-04-02T18:14:00.691Z,15.91
2023-04-02T18:16:34.633Z,15.82
2023-04-02T18:19:14.978Z,15.70
2023-04-02T18:21:47.086Z,15.59
2023-04-02T18:24:17.761Z,15.54
2023-04-02T18:26:54.068Z,15.53
2023-04-02T18:29:25.119Z,15.56
2023-04-02T18:32:05.185Z,15.49
2023-04-02T18:34:33.179Z,15.48
2023-04-02T18:37:10.043Z,15.32
2023-04-02T18:40:10.416Z,15.35
2023-04-02T18:42:38.238Z,15.36
2023-04-02T18:45:18.933Z,15.20
2023-04-02T18:47:53.053Z,15.13
2023-04-02T18:50:32.683Z,15.21
2023-04-02T18:53:08.719Z,15.40
2023-04-02T18:55:37.017Z,15.47
2023-04-02T18:58:09.897Z,15.14
2023-04-02T19:00:42.079Z,15.26
2023-04-02T19:03:10.522Z,15.21
2023-04-02T19:05:41.865Z,15.15
2023-04-02T19:08:32.510Z,15.20
2023-04-02T19:11:13.376Z,15.03
2023-04-02T19:13:41.136Z,15.10
2023-04-02T19:16:28.768Z,15.18
2023-04-02T19:18:56.785Z,15.26
2023-04-02T19:21:34.307Z,15.19
2023-04-02T19:24:04.767Z,15.21
2023-04-02T19:26:45.519Z,15.32
2023-04-02T19:29:16.078Z,15.29
2023-04-02T19:32:02.321Z,15.46
2023-04-02T19:34:47.404Z,15.49
2023-04-02T19:37:35.663Z,15.49
2023-04-02T19:40:04.789Z,15.61
2023-04-02T19:42:32.757Z,15.61
2023-04-02T19:45:00.788Z,15.59
2023-04-02T19:47:28.205Z,15.66
2023-04-02T19:49:56.532Z,15.60
2023-04-02T19:52:24.518Z,15.72
2023-04-02T19:54:52.390Z,15.79
2023-04-02T19:57:20.643Z,15.56
2023-04-02T19:59:48.432Z,15.24
2023-04-02T20:02:15.819Z,15.29
2023-04-02T20:04:43.391Z,15.50
2023-04-02T20:07:11.140Z,15.66
2023-04-02T20:09:38.523Z,15.64
2023-04-02T20:12:07.118Z,15.67
2023-04-02T20:14:34.524Z,15.49
2023-04-02T20:17:02.009Z,15.28
2023-04-02T20:19:30.141Z,15.38
2023-04-02T20:21:57.854Z,15.27
2023-04-02T20:24:25.757Z,14.81
2023-04-02T20:26:53.205Z,14.70
2023-04-02T20:29:22.978Z,14.53
2023-04-02T20:31:51.332Z,14.36
2023-04-02T20:34:18.910Z,14.41
2023-04-02T20:36:47.646Z,14.50
2023-04-02T20:39:19.532Z,14.67
2023-04-02T20:41:48.027Z,14.96
2023-04-02T20:44:15.936Z,15.01
2023-04-02T20:46:43.931Z,14.90
2023-04-02T20:49:12.136Z,14.95
2023-04-02T20:51:39.979Z,14.84
2023-04-02T20:54:07.341Z,14.63
2023-04-02T20:56:35.299Z,14.69
2023-04-02T20:59:03.849Z,14.71
2023-04-02T21:01:31.839Z,14.65
2023-04-02T21:04:00.469Z,14.78
2023-04-02T21:06:29.856Z,14.80
2023-04-02T21:08:57.945Z,14.46
2023-04-02T21:11:26.317Z,14.52
2023-04-02T21:13:54.397Z,14.40
2023-04-02T21:16:23.311Z,14.48
2023-04-02T21:18:52.402Z,14.60
2023-04-02T21:21:20.474Z,14.70
2023-04-02T21:23:53.888Z,14.86
2023-04-02T21:26:21.887Z,15.02
2023-04-02T21:28:50.018Z,14.80
2023-04-02T21:31:19.479Z,14.89
2023-04-02T21:33:48.084Z,15.01
2023-04-02T21:36:17.649Z,14.98
2023-04-02T21:38:46.768Z,14.89
2023-04-02T21:41:16.317Z,14.90
2023-04-02T21:43:44.492Z,14.73
2023-04-02T21:46:12.388Z,14.44
2023-04-02T21:48:41.876Z,14.60
2023-04-02T21:51:11.738Z,14.51
2023-04-02T21:53:39.964Z,14.45
2023-04-02T21:56:12.695Z,14.51
2023-04-02T21:58:41.770Z,14.52
2023-04-02T22:01:16.863Z,14.42
2023-04-02T22:03:48.407Z,14.40
2023-04-02T22:06:20.280Z,14.46
2023-04-02T22:08:52.398Z,14.38
2023-04-02T22:11:21.400Z,14.40
2023-04-02T22:13:49.309Z,14.36
2023-04-02T22:16:18.255Z,14.42
2023-04-02T22:18:46.237Z,14.34
2023-04-02T22:21:14.738Z,14.27
2023-04-02T22:23:42.986Z,14.13
2023-04-02T22:26:11.672Z,13.83
2023-04-02T22:28:40.517Z,13.73
2023-04-02T22:31:09.797Z,13.62
2023-04-02T22:33:37.834Z,13.61
2023-04-02T22:36:05.482Z,13.60
2023-04-02T22:38:33.940Z,13.53
2023-04-02T22:41:12.918Z,13.44
2023-04-02T22:43:41.684Z,13.39
2023-04-02T22:46:10.809Z,13.38
2023-04-02T22:48:41.234Z,13.17
2023-04-02T22:51:10.512Z,13.23
2023-04-02T22:53:38.619Z,13.19
2023-04-02T22:56:07.237Z,13.08
2023-04-02T22:58:35.773Z,13.13
2023-04-02T23:01:06.948Z,13.08
2023-04-02T23:03:35.009Z,13.06
2023-04-02T23:06:04.138Z,13.06
2023-04-02T23:08:32.025Z,13.03
2023-04-02T23:11:00.435Z,12.89
2023-04-02T23:13:28.125Z,12.76
2023-04-02T23:15:55.630Z,12.77
2023-04-02T23:18:23.143Z,12.80
2023-04-02T23:20:51.458Z,12.76
2023-04-02T23:23:19.353Z,12.72
2023-04-02T23:25:47.144Z,12.54
2023-04-02T23:28:14.492Z,12.59
2023-04-02T23:30:43.637Z,12.58
2023-04-02T23:33:12.022Z,12.42
2023-04-02T23:35:39.525Z,12.16
2023-04-02T23:38:07.877Z,12.08
2023-04-02T23:40:35.414Z,12.16
2023-04-02T23:43:02.878Z,12.18
2023-04-02T23:45:30.966Z,12.14
2023-04-02T23:47:58.981Z,12.16
2023-04-02T23:50:26.827Z,12.09
2023-04-02T23:52:54.820Z,11.98
2023-04-02T23:55:22.204Z,11.93
2023-04-02T23:57:50.019Z,11.97
